createdAt,value
2017-12-03T00:00:12.208Z,1018.00
2017-12-03T00:01:12.200Z,1018.03
2017-12-03T00:02:12.180Z,1018.03
2017-12-03T00:03:12.167Z,1018.05
2017-12-03T00:04:12.154Z,1018.00
2017-12-03T00:05:12.139Z,1017.97
2017-12-03T00:06:12.123Z,1017.95
2017-12-03T00:07:12.109Z,1017.99
2017-12-03T00:08:12.095Z,1017.94
2017-12-03T00:09:12.084Z,1017.93
2017-12-03T00:10:12.073Z,1017.93
2017-12-03T00:11:12.057Z,1017.89
2017-12-03T00:12:12.045Z,1017.88
2017-12-03T00:13:12.028Z,1017.82
2017-12-03T00:14:12.015Z,1017.86
2017-12-03T00:15:12.000Z,1017.84
2017-12-03T00:16:11.987Z,1017.83
2017-12-03T00:17:11.973Z,1017.84
2017-12-03T00:18:11.960Z,1017.84
2017-12-03T00:19:11.946Z,1017.83
2017-12-03T00:20:11.936Z,1017.83
2017-12-03T00:21:11.924Z,1017.79
2017-12-03T00:22:11.903Z,1017.76
2017-12-03T00:23:11.891Z,1017.82
2017-12-03T00:24:11.894Z,1017.79
2017-12-03T00:25:11.867Z,1017.80
2017-12-03T00:26:11.849Z,1017.81
2017-12-03T00:27:11.836Z,1017.80
2017-12-03T00:28:11.822Z,1017.82
2017-12-03T00:29:11.809Z,1017.84
2017-12-03T00:30:11.797Z,1017.77
2017-12-03T00:31:11.787Z,1017.81
2017-12-03T00:32:11.767Z,1017.84
2017-12-03T00:33:11.752Z,1017.85
2017-12-03T00:34:11.741Z,1017.79
2017-12-03T00:35:11.733Z,1017.77
2017-12-03T00:36:11.715Z,1017.76
2017-12-03T00:37:11.697Z,1017.73
2017-12-03T00:38:11.689Z,1017.75
2017-12-03T00:39:11.672Z,1017.74
2017-12-03T00:40:11.655Z,1017.72
2017-12-03T00:41:11.644Z,1017.70
2017-12-03T00:42:11.628Z,1017.62
2017-12-03T00:43:11.619Z,1017.64
2017-12-03T00:44:11.601Z,1017.59
2017-12-03T00:45:11.588Z,1017.62
2017-12-03T00:46:11.579Z,1017.58
2017-12-03T00:47:11.562Z,1017.57
2017-12-03T00:48:11.546Z,1017.56
2017-12-03T00:49:11.535Z,1017.56
2017-12-03T00:50:11.519Z,1017.56
2017-12-03T00:51:11.504Z,1017.60
2017-12-03T00:52:11.498Z,1017.57
2017-12-03T00:53:11.478Z,1017.58
2017-12-03T00:54:11.471Z,1017.57
2017-12-03T00:55:11.451Z,1017.61
2017-12-03T00:56:11.436Z,1017.61
2017-12-03T00:57:11.433Z,1017.56
2017-12-03T00:58:11.410Z,1017.58
2017-12-03T00:59:11.400Z,1017.57
2017-12-03T01:00:11.382Z,1017.54
2017-12-03T01:01:11.382Z,1017.52
2017-12-03T01:02:11.354Z,1017.47
2017-12-03T01:03:11.341Z,1017.48
2017-12-03T01:04:11.325Z,1017.48
2017-12-03T01:05:11.314Z,1017.43
2017-12-03T01:06:11.315Z,1017.45
2017-12-03T01:07:11.290Z,1017.48
2017-12-03T01:08:11.271Z,1017.42
2017-12-03T01:09:11.257Z,1017.42
2017-12-03T01:10:11.244Z,1017.45
2017-12-03T01:11:11.231Z,1017.47
2017-12-03T01:12:11.218Z,1017.42
2017-12-03T01:13:11.201Z,1017.45
2017-12-03T01:14:11.190Z,1017.43
2017-12-03T01:15:11.175Z,1017.48
2017-12-03T01:16:11.160Z,1017.44
2017-12-03T01:17:11.146Z,1017.46
2017-12-03T01:18:11.133Z,1017.41
2017-12-03T01:19:11.119Z,1017.41
2017-12-03T01:20:11.108Z,1017.41
2017-12-03T01:21:11.092Z,1017.44
2017-12-03T01:22:11.078Z,1017.47
2017-12-03T01:23:11.067Z,1017.37
2017-12-03T01:24:11.050Z,1017.41
2017-12-03T01:25:11.041Z,1017.40
2017-12-03T01:26:11.026Z,1017.40
2017-12-03T01:27:11.019Z,1017.36
2017-12-03T01:28:10.996Z,1017.34
2017-12-03T01:29:10.981Z,1017.36
2017-12-03T01:30:10.971Z,1017.31
2017-12-03T01:31:10.953Z,1017.36
2017-12-03T01:32:10.940Z,1017.36
2017-12-03T01:33:10.924Z,1017.35
2017-12-03T01:34:10.911Z,1017.34
2017-12-03T01:35:10.899Z,1017.33
2017-12-03T01:36:10.885Z,1017.36
2017-12-03T01:37:10.870Z,1017.30
2017-12-03T01:38:10.858Z,1017.32
2017-12-03T01:39:10.842Z,1017.29
2017-12-03T01:40:10.826Z,1017.29
2017-12-03T01:41:10.813Z,1017.27
2017-12-03T01:42:10.799Z,1017.25
2017-12-03T01:43:10.785Z,1017.25
2017-12-03T01:44:10.771Z,1017.23
2017-12-03T01:45:10.758Z,1017.28
2017-12-03T01:46:10.743Z,1017.23
2017-12-03T01:47:10.729Z,1017.20
2017-12-03T01:48:10.715Z,1017.17
2017-12-03T01:49:10.704Z,1017.21
2017-12-03T01:50:10.691Z,1017.18
2017-12-03T01:51:10.675Z,1017.19
2017-12-03T01:52:10.718Z,1017.15
2017-12-03T01:53:10.646Z,1017.18
2017-12-03T01:54:10.634Z,1017.18
2017-12-03T01:55:10.619Z,1017.17
2017-12-03T01:56:10.602Z,1017.22
2017-12-03T01:57:10.593Z,1017.17
2017-12-03T01:58:10.575Z,1017.18
2017-12-03T01:59:10.563Z,1017.14
2017-12-03T02:00:10.548Z,1017.21
2017-12-03T02:01:10.534Z,1017.24
2017-12-03T02:02:10.523Z,1017.20
2017-12-03T02:03:10.507Z,1017.22
2017-12-03T02:04:10.490Z,1017.16
2017-12-03T02:05:10.478Z,1017.14
2017-12-03T02:06:10.464Z,1017.18
2017-12-03T02:07:10.454Z,1017.16
2017-12-03T02:08:10.434Z,1017.18
2017-12-03T02:09:10.422Z,1017.15
2017-12-03T02:10:10.412Z,1017.16
2017-12-03T02:11:10.392Z,1017.08
2017-12-03T02:12:10.380Z,1017.12
2017-12-03T02:13:10.367Z,1017.07
2017-12-03T02:14:10.358Z,1016.98
2017-12-03T02:15:10.338Z,1017.02
2017-12-03T02:16:10.328Z,1016.99
2017-12-03T02:17:10.311Z,1017.03
2017-12-03T02:18:10.298Z,1017.08
2017-12-03T02:19:10.284Z,1017.01
2017-12-03T02:20:10.272Z,1016.99
2017-12-03T02:21:10.253Z,1017.03
2017-12-03T02:22:10.238Z,1016.99
2017-12-03T02:23:10.226Z,1016.98
2017-12-03T02:24:10.213Z,1016.99
2017-12-03T02:25:10.197Z,1016.98
2017-12-03T02:26:10.184Z,1016.94
2017-12-03T02:27:10.169Z,1016.99
2017-12-03T02:28:45.901Z,1017.00
2017-12-03T02:29:10.148Z,1016.98
2017-12-03T02:30:10.129Z,1016.94
2017-12-03T02:31:10.115Z,1016.94
2017-12-03T02:32:10.106Z,1016.94
2017-12-03T02:33:10.086Z,1016.94
2017-12-03T02:34:10.075Z,1016.93
2017-12-03T02:35:10.060Z,1016.92
2017-12-03T02:36:10.043Z,1016.86
2017-12-03T02:37:10.035Z,1016.92
2017-12-03T02:38:10.015Z,1016.87
2017-12-03T02:39:10.004Z,1016.88
2017-12-03T02:40:09.987Z,1016.88
2017-12-03T02:41:09.978Z,1016.85
2017-12-03T02:42:09.962Z,1016.91
2017-12-03T02:43:09.946Z,1016.83
2017-12-03T02:44:09.935Z,1016.80
2017-12-03T02:45:09.918Z,1016.80
2017-12-03T02:46:09.905Z,1016.82
2017-12-03T02:47:09.894Z,1016.81
2017-12-03T02:48:09.878Z,1016.77
2017-12-03T02:49:09.863Z,1016.74
2017-12-03T02:50:09.848Z,1016.79
2017-12-03T02:51:09.836Z,1016.81
2017-12-03T02:52:09.822Z,1016.81
2017-12-03T02:53:09.807Z,1016.78
2017-12-03T02:54:09.793Z,1016.78
2017-12-03T02:55:09.779Z,1016.77
2017-12-03T02:56:09.766Z,1016.75
2017-12-03T02:57:09.763Z,1016.75
2017-12-03T02:58:09.739Z,1016.70
2017-12-03T02:59:09.729Z,1016.69
2017-12-03T03:00:09.710Z,1016.69
2017-12-03T03:01:09.696Z,1016.71
2017-12-03T03:02:09.682Z,1016.68
2017-12-03T03:03:09.668Z,1016.67
2017-12-03T03:04:09.657Z,1016.67
2017-12-03T03:05:09.640Z,1016.61
2017-12-03T03:06:09.626Z,1016.59
2017-12-03T03:07:09.626Z,1016.58
2017-12-03T03:08:09.598Z,1016.54
2017-12-03T03:09:09.585Z,1016.55
2017-12-03T03:10:09.573Z,1016.49
2017-12-03T03:11:09.559Z,1016.48
2017-12-03T03:12:09.544Z,1016.52
2017-12-03T03:13:09.529Z,1016.50
2017-12-03T03:14:09.524Z,1016.46
2017-12-03T03:15:09.502Z,1016.44
2017-12-03T03:16:09.488Z,1016.42
2017-12-03T03:17:09.472Z,1016.40
2017-12-03T03:18:09.465Z,1016.39
2017-12-03T03:19:09.445Z,1016.41
2017-12-03T03:20:09.431Z,1016.42
2017-12-03T03:21:09.416Z,1016.37
2017-12-03T03:22:09.403Z,1016.37
2017-12-03T03:23:09.390Z,1016.32
2017-12-03T03:24:09.375Z,1016.39
2017-12-03T03:25:09.361Z,1016.34
2017-12-03T03:26:09.347Z,1016.39
2017-12-03T03:27:09.333Z,1016.35
2017-12-03T03:28:09.322Z,1016.31
2017-12-03T03:29:09.308Z,1016.31
2017-12-03T03:30:09.294Z,1016.24
2017-12-03T03:31:09.284Z,1016.20
2017-12-03T03:32:09.276Z,1016.22
2017-12-03T03:33:09.251Z,1016.21
2017-12-03T03:34:09.238Z,1016.23
2017-12-03T03:35:09.224Z,1016.15
2017-12-03T03:36:09.210Z,1016.12
2017-12-03T03:37:09.206Z,1016.14
2017-12-03T03:38:09.181Z,1016.18
2017-12-03T03:39:09.167Z,1016.10
2017-12-03T03:40:09.157Z,1016.11
2017-12-03T03:41:09.139Z,1016.14
2017-12-03T03:42:09.129Z,1016.10
2017-12-03T03:43:09.110Z,1016.05
2017-12-03T03:44:09.097Z,1016.10
2017-12-03T03:45:09.082Z,1016.12
2017-12-03T03:46:09.069Z,1016.11
2017-12-03T03:47:09.056Z,1016.12
2017-12-03T03:48:09.038Z,1016.16
2017-12-03T03:49:09.026Z,1016.13
2017-12-03T03:50:09.013Z,1016.12
2017-12-03T03:51:08.998Z,1016.11
2017-12-03T03:52:08.986Z,1016.14
2017-12-03T03:53:08.969Z,1016.12
2017-12-03T03:54:08.955Z,1016.10
2017-12-03T03:55:08.941Z,1016.07
2017-12-03T03:56:08.927Z,1016.11
2017-12-03T03:57:08.912Z,1016.09
2017-12-03T03:58:08.901Z,1016.11
2017-12-03T03:59:08.888Z,1016.09
2017-12-03T04:00:08.873Z,1016.14
2017-12-03T04:01:08.877Z,1016.11
2017-12-03T04:02:08.845Z,1016.11
2017-12-03T04:03:08.832Z,1016.05
2017-12-03T04:04:08.818Z,1016.06
2017-12-03T04:05:08.802Z,1016.08
2017-12-03T04:06:08.795Z,1016.08
2017-12-03T04:07:08.776Z,1016.08
2017-12-03T04:08:08.763Z,1016.02
2017-12-03T04:09:08.748Z,1016.05
2017-12-03T04:10:08.734Z,1016.03
2017-12-03T04:11:08.736Z,1016.05
2017-12-03T04:12:08.704Z,1016.07
2017-12-03T04:13:08.692Z,1016.05
2017-12-03T04:14:08.675Z,1016.06
2017-12-03T04:15:08.661Z,1016.07
2017-12-03T04:16:08.654Z,1016.08
2017-12-03T04:17:08.632Z,1016.06
2017-12-03T04:18:08.618Z,1016.14
2017-12-03T04:19:08.606Z,1016.01
2017-12-03T04:20:08.590Z,1016.15
2017-12-03T04:21:08.580Z,1016.10
2017-12-03T04:22:08.562Z,1016.08
2017-12-03T04:23:08.549Z,1016.07
2017-12-03T04:24:08.535Z,1016.11
2017-12-03T04:25:08.520Z,1016.07
2017-12-03T04:26:08.511Z,1016.05
2017-12-03T04:27:08.492Z,1016.05
2017-12-03T04:28:08.477Z,1016.03
2017-12-03T04:29:08.465Z,1016.09
2017-12-03T04:30:08.454Z,1016.09
2017-12-03T04:31:08.480Z,1016.05
2017-12-03T04:32:08.422Z,1016.03
2017-12-03T04:33:08.408Z,1016.03
2017-12-03T04:34:08.396Z,1015.99
2017-12-03T04:35:08.398Z,1015.99
2017-12-03T04:36:08.368Z,1016.00
2017-12-03T04:37:08.356Z,1016.00
2017-12-03T04:38:08.340Z,1016.03
2017-12-03T04:39:08.331Z,1015.95
2017-12-03T04:40:08.317Z,1015.95
2017-12-03T04:41:08.298Z,1016.00
2017-12-03T04:42:08.285Z,1015.98
2017-12-03T04:43:08.270Z,1015.92
2017-12-03T04:44:08.256Z,1015.95
2017-12-03T04:45:08.244Z,1015.98
2017-12-03T04:46:08.229Z,1015.99
2017-12-03T04:47:08.214Z,1015.98
2017-12-03T04:48:08.199Z,1015.98
2017-12-03T04:49:08.195Z,1015.94
2017-12-03T04:50:08.178Z,1015.90
2017-12-03T04:51:08.164Z,1015.97
2017-12-03T04:52:08.157Z,1015.95
2017-12-03T04:53:08.132Z,1016.01
2017-12-03T04:54:08.129Z,1015.97
2017-12-03T04:55:08.106Z,1015.93
2017-12-03T04:56:08.090Z,1015.97
2017-12-03T04:57:08.074Z,1015.94
2017-12-03T04:58:08.061Z,1015.94
2017-12-03T04:59:08.050Z,1015.92
2017-12-03T05:00:08.064Z,1015.88
2017-12-03T05:01:08.017Z,1015.89
2017-12-03T05:02:08.009Z,1015.87
2017-12-03T05:03:07.991Z,1015.87
2017-12-03T05:04:07.975Z,1015.84
2017-12-03T05:05:07.962Z,1015.81
2017-12-03T05:06:07.950Z,1015.75
2017-12-03T05:07:07.935Z,1015.78
2017-12-03T05:08:07.922Z,1015.85
2017-12-03T05:09:07.907Z,1015.79
2017-12-03T05:10:07.893Z,1015.82
2017-12-03T05:11:07.880Z,1015.83
2017-12-03T05:12:07.866Z,1015.88
2017-12-03T05:13:07.850Z,1015.89
2017-12-03T05:14:07.839Z,1015.85
2017-12-03T05:15:07.822Z,1015.88
2017-12-03T05:16:07.846Z,1015.89
2017-12-03T05:17:07.826Z,1015.93
2017-12-03T05:18:07.798Z,1015.91
2017-12-03T05:19:07.788Z,1015.85
2017-12-03T05:20:07.753Z,1015.84
2017-12-03T05:21:07.745Z,1015.83
2017-12-03T05:22:07.728Z,1015.76
2017-12-03T05:23:07.726Z,1015.77
2017-12-03T05:24:07.703Z,1015.72
2017-12-03T05:25:07.685Z,1015.80
2017-12-03T05:26:07.672Z,1015.70
2017-12-03T05:27:07.659Z,1015.75
2017-12-03T05:28:07.642Z,1015.72
2017-12-03T05:29:07.629Z,1015.65
2017-12-03T05:30:07.618Z,1015.67
2017-12-03T05:31:07.601Z,1015.69
2017-12-03T05:32:07.589Z,1015.70
2017-12-03T05:33:07.573Z,1015.65
2017-12-03T05:34:07.559Z,1015.70
2017-12-03T05:35:07.545Z,1015.66
2017-12-03T05:36:07.585Z,1015.62
2017-12-03T05:37:07.515Z,1015.62
2017-12-03T05:38:07.505Z,1015.71
2017-12-03T05:39:07.499Z,1015.62
2017-12-03T05:40:07.474Z,1015.64
2017-12-03T05:41:07.460Z,1015.63
2017-12-03T05:42:07.446Z,1015.62
2017-12-03T05:43:07.431Z,1015.60
2017-12-03T05:44:07.418Z,1015.57
2017-12-03T05:45:07.411Z,1015.56
2017-12-03T05:46:07.396Z,1015.60
2017-12-03T05:47:07.384Z,1015.60
2017-12-03T05:48:07.368Z,1015.53
2017-12-03T05:49:07.353Z,1015.57
2017-12-03T05:50:07.342Z,1015.53
2017-12-03T05:51:07.326Z,1015.52
2017-12-03T05:52:07.314Z,1015.53
2017-12-03T05:53:07.305Z,1015.52
2017-12-03T05:54:07.281Z,1015.53
2017-12-03T05:55:07.267Z,1015.52
2017-12-03T05:56:07.253Z,1015.57
2017-12-03T05:57:07.239Z,1015.57
2017-12-03T05:58:07.232Z,1015.58
2017-12-03T05:59:07.210Z,1015.57
2017-12-03T06:00:07.199Z,1015.54
2017-12-03T06:01:07.183Z,1015.54
2017-12-03T06:02:07.170Z,1015.56
2017-12-03T06:03:07.156Z,1015.55
2017-12-03T06:04:07.140Z,1015.55
2017-12-03T06:05:07.125Z,1015.53
2017-12-03T06:06:07.113Z,1015.50
2017-12-03T06:07:07.099Z,1015.51
2017-12-03T06:08:07.091Z,1015.55
2017-12-03T06:09:07.069Z,1015.55
2017-12-03T06:10:07.058Z,1015.53
2017-12-03T06:11:07.049Z,1015.51
2017-12-03T06:12:07.028Z,1015.49
2017-12-03T06:13:07.017Z,1015.46
2017-12-03T06:14:07.001Z,1015.49
2017-12-03T06:15:06.990Z,1015.49
2017-12-03T06:16:06.979Z,1015.44
2017-12-03T06:17:06.960Z,1015.46
2017-12-03T06:18:06.946Z,1015.48
2017-12-03T06:19:06.931Z,1015.52
2017-12-03T06:20:06.917Z,1015.46
2017-12-03T06:21:06.905Z,1015.45
2017-12-03T06:22:06.889Z,1015.46
2017-12-03T06:23:06.876Z,1015.50
2017-12-03T06:24:06.862Z,1015.46
2017-12-03T06:25:06.847Z,1015.46
2017-12-03T06:26:06.836Z,1015.44
2017-12-03T06:27:06.820Z,1015.47
2017-12-03T06:28:06.805Z,1015.44
2017-12-03T06:29:06.793Z,1015.46
2017-12-03T06:30:06.778Z,1015.46
2017-12-03T06:31:06.763Z,1015.45
2017-12-03T06:32:06.755Z,1015.47
2017-12-03T06:33:06.737Z,1015.49
2017-12-03T06:34:06.721Z,1015.45
2017-12-03T06:35:06.711Z,1015.39
2017-12-03T06:36:06.693Z,1015.42
2017-12-03T06:37:06.682Z,1015.40
2017-12-03T06:38:06.671Z,1015.42
2017-12-03T06:39:06.659Z,1015.46
2017-12-03T06:40:06.650Z,1015.43
2017-12-03T06:41:06.624Z,1015.42
2017-12-03T06:42:06.609Z,1015.39
2017-12-03T06:43:06.618Z,1015.47
2017-12-03T06:44:06.582Z,1015.45
2017-12-03T06:45:06.568Z,1015.43
2017-12-03T06:46:06.555Z,1015.46
2017-12-03T06:47:06.544Z,1015.49
2017-12-03T06:48:06.531Z,1015.50
2017-12-03T06:49:06.513Z,1015.48
2017-12-03T06:50:06.500Z,1015.48
2017-12-03T06:51:06.485Z,1015.51
2017-12-03T06:52:06.472Z,1015.50
2017-12-03T06:53:06.487Z,1015.52
2017-12-03T06:54:06.443Z,1015.53
2017-12-03T06:55:06.434Z,1015.50
2017-12-03T06:56:06.450Z,1015.49
2017-12-03T06:57:06.459Z,1015.54
2017-12-03T06:58:06.388Z,1015.54
2017-12-03T06:59:06.385Z,1015.52
2017-12-03T07:00:06.360Z,1015.53
2017-12-03T07:01:06.347Z,1015.51
2017-12-03T07:02:06.332Z,1015.57
2017-12-03T07:03:06.317Z,1015.57
2017-12-03T07:04:06.318Z,1015.56
2017-12-03T07:05:06.290Z,1015.54
2017-12-03T07:06:06.284Z,1015.57
2017-12-03T07:07:06.262Z,1015.56
2017-12-03T07:08:06.247Z,1015.59
2017-12-03T07:09:06.234Z,1015.54
2017-12-03T07:10:06.220Z,1015.55
2017-12-03T07:11:06.207Z,1015.57
2017-12-03T07:12:06.196Z,1015.61
2017-12-03T07:13:06.180Z,1015.50
2017-12-03T07:14:06.172Z,1015.54
2017-12-03T07:15:06.150Z,1015.58
2017-12-03T07:16:06.141Z,1015.59
2017-12-03T07:17:06.123Z,1015.56
2017-12-03T07:18:06.110Z,1015.57
2017-12-03T07:19:06.094Z,1015.58
2017-12-03T07:20:06.080Z,1015.57
2017-12-03T07:21:06.072Z,1015.60
2017-12-03T07:22:06.054Z,1015.59
2017-12-03T07:23:06.039Z,1015.63
2017-12-03T07:24:06.029Z,1015.61
2017-12-03T07:25:06.012Z,1015.61
2017-12-03T07:26:05.996Z,1015.63
2017-12-03T07:27:05.985Z,1015.62
2017-12-03T07:28:05.970Z,1015.60
2017-12-03T07:29:05.954Z,1015.57
2017-12-03T07:30:05.942Z,1015.59
2017-12-03T07:31:05.928Z,1015.64
2017-12-03T07:32:05.915Z,1015.59
2017-12-03T07:33:05.910Z,1015.65
2017-12-03T07:34:05.888Z,1015.64
2017-12-03T07:35:05.878Z,1015.60
2017-12-03T07:36:05.859Z,1015.59
2017-12-03T07:37:05.843Z,1015.56
2017-12-03T07:38:05.832Z,1015.58
2017-12-03T07:39:05.818Z,1015.59
2017-12-03T07:40:05.805Z,1015.59
2017-12-03T07:41:05.788Z,1015.63
2017-12-03T07:42:05.777Z,1015.58
2017-12-03T07:43:05.764Z,1015.57
2017-12-03T07:44:05.780Z,1015.53
2017-12-03T07:45:05.735Z,1015.57
2017-12-03T07:46:05.723Z,1015.54
2017-12-03T07:47:05.709Z,1015.62
2017-12-03T07:48:05.690Z,1015.62
2017-12-03T07:49:05.678Z,1015.62
2017-12-03T07:50:05.679Z,1015.59
2017-12-03T07:51:05.648Z,1015.57
2017-12-03T07:52:05.638Z,1015.62
2017-12-03T07:53:05.636Z,1015.51
2017-12-03T07:54:05.606Z,1015.56
2017-12-03T07:55:05.593Z,1015.60
2017-12-03T07:56:05.579Z,1015.62
2017-12-03T07:57:05.564Z,1015.62
2017-12-03T07:58:05.568Z,1015.70
2017-12-03T07:59:05.584Z,1015.68
2017-12-03T08:00:05.559Z,1015.65
2017-12-03T08:01:05.510Z,1015.68
2017-12-03T08:02:05.494Z,1015.68
2017-12-03T08:03:05.501Z,1015.66
2017-12-03T08:04:05.466Z,1015.66
2017-12-03T08:05:05.453Z,1015.62
2017-12-03T08:06:05.450Z,1015.67
2017-12-03T08:07:05.473Z,1015.66
2017-12-03T08:08:05.410Z,1015.67
2017-12-03T08:09:05.397Z,1015.66
2017-12-03T08:10:05.384Z,1015.65
2017-12-03T08:11:05.369Z,1015.56
2017-12-03T08:12:05.355Z,1015.65
2017-12-03T08:13:05.423Z,1015.64
2017-12-03T08:14:05.339Z,1015.68
2017-12-03T08:15:05.313Z,1015.65
2017-12-03T08:16:05.301Z,1015.67
2017-12-03T08:17:05.289Z,1015.69
2017-12-03T08:18:05.273Z,1015.67
2017-12-03T08:19:05.259Z,1015.69
2017-12-03T08:20:05.312Z,1015.62
2017-12-03T08:21:05.263Z,1015.68
2017-12-03T08:22:05.237Z,1015.64
2017-12-03T08:23:05.202Z,1015.59
2017-12-03T08:24:05.192Z,1015.62
2017-12-03T08:25:05.179Z,1015.62
2017-12-03T08:26:05.161Z,1015.60
2017-12-03T08:27:05.147Z,1015.60
2017-12-03T08:28:05.140Z,1015.58
2017-12-03T08:29:05.118Z,1015.66
2017-12-03T08:30:05.104Z,1015.57
2017-12-03T08:31:05.159Z,1015.58
2017-12-03T08:32:05.084Z,1015.61
2017-12-03T08:33:05.062Z,1015.52
2017-12-03T08:34:05.088Z,1015.56
2017-12-03T08:35:05.064Z,1015.52
2017-12-03T08:36:05.026Z,1015.54
2017-12-03T08:37:05.058Z,1015.57
2017-12-03T08:38:04.993Z,1015.56
2017-12-03T08:39:05.012Z,1015.58
2017-12-03T08:40:05.013Z,1015.60
2017-12-03T08:41:04.951Z,1015.59
2017-12-03T08:42:04.937Z,1015.60
2017-12-03T08:43:04.928Z,1015.56
2017-12-03T08:44:04.917Z,1015.59
2017-12-03T08:45:04.896Z,1015.59
2017-12-03T08:46:04.881Z,1015.59
2017-12-03T08:47:04.871Z,1015.60
2017-12-03T08:48:04.857Z,1015.53
2017-12-03T08:49:04.840Z,1015.54
2017-12-03T08:50:04.826Z,1015.56
2017-12-03T08:51:04.814Z,1015.49
2017-12-03T08:52:04.797Z,1015.47
2017-12-03T08:53:04.783Z,1015.52
2017-12-03T08:54:04.773Z,1015.55
2017-12-03T08:55:04.757Z,1015.59
2017-12-03T08:56:04.744Z,1015.48
2017-12-03T08:57:04.728Z,1015.53
2017-12-03T08:58:04.716Z,1015.53
2017-12-03T08:59:04.707Z,1015.54
2017-12-03T09:00:04.691Z,1015.52
2017-12-03T09:01:04.673Z,1015.61
2017-12-03T09:02:04.664Z,1015.54
2017-12-03T09:03:04.651Z,1015.56
2017-12-03T09:04:04.632Z,1015.55
2017-12-03T09:05:04.618Z,1015.58
2017-12-03T09:06:04.605Z,1015.69
2017-12-03T09:07:04.593Z,1015.60
2017-12-03T09:08:04.578Z,1015.60
2017-12-03T09:09:04.593Z,1015.63
2017-12-03T09:10:04.553Z,1015.61
2017-12-03T09:11:04.537Z,1015.61
2017-12-03T09:12:04.522Z,1015.62
2017-12-03T09:13:04.510Z,1015.63
2017-12-03T09:14:04.495Z,1015.62
2017-12-03T09:15:04.482Z,1015.63
2017-12-03T09:16:04.468Z,1015.56
2017-12-03T09:17:04.454Z,1015.56
2017-12-03T09:18:04.442Z,1015.56
2017-12-03T09:19:04.427Z,1015.58
2017-12-03T09:20:04.417Z,1015.54
2017-12-03T09:21:04.397Z,1015.52
2017-12-03T09:22:04.386Z,1015.56
2017-12-03T09:23:04.372Z,1015.58
2017-12-03T09:24:04.357Z,1015.55
2017-12-03T09:25:04.344Z,1015.55
2017-12-03T09:26:04.329Z,1015.55
2017-12-03T09:27:04.319Z,1015.53
2017-12-03T09:28:04.301Z,1015.54
2017-12-03T09:29:04.288Z,1015.58
2017-12-03T09:30:04.275Z,1015.52
2017-12-03T09:31:04.262Z,1015.53
2017-12-03T09:32:04.248Z,1015.55
2017-12-03T09:33:04.234Z,1015.55
2017-12-03T09:34:04.220Z,1015.56
2017-12-03T09:35:04.207Z,1015.54
2017-12-03T09:36:04.193Z,1015.54
2017-12-03T09:37:04.179Z,1015.51
2017-12-03T09:38:04.166Z,1015.50
2017-12-03T09:39:04.152Z,1015.47
2017-12-03T09:40:04.139Z,1015.49
2017-12-03T09:41:04.123Z,1015.54
2017-12-03T09:42:04.126Z,1015.56
2017-12-03T09:43:04.096Z,1015.50
2017-12-03T09:44:04.082Z,1015.50
2017-12-03T09:45:04.071Z,1015.47
2017-12-03T09:46:04.056Z,1015.55
2017-12-03T09:47:04.042Z,1015.40
2017-12-03T09:48:04.027Z,1015.48
2017-12-03T09:49:04.016Z,1015.51
2017-12-03T09:50:04.040Z,1015.47
2017-12-03T09:51:03.988Z,1015.50
2017-12-03T09:52:03.975Z,1015.49
2017-12-03T09:53:03.959Z,1015.48
2017-12-03T09:54:03.945Z,1015.49
2017-12-03T09:55:03.933Z,1015.51
2017-12-03T09:56:03.917Z,1015.58
2017-12-03T09:57:03.903Z,1015.58
2017-12-03T09:58:03.889Z,1015.58
2017-12-03T09:59:03.877Z,1015.50
2017-12-03T10:00:03.862Z,1015.50
2017-12-03T10:01:03.856Z,1015.46
2017-12-03T10:02:03.835Z,1015.48
2017-12-03T10:03:03.821Z,1015.57
2017-12-03T10:04:03.808Z,1015.53
2017-12-03T10:05:03.793Z,1015.54
2017-12-03T10:06:03.780Z,1015.58
2017-12-03T10:07:03.767Z,1015.54
2017-12-03T10:08:03.752Z,1015.53
2017-12-03T10:09:03.749Z,1015.58
2017-12-03T10:10:03.727Z,1015.58
2017-12-03T10:11:03.711Z,1015.59
2017-12-03T10:12:03.699Z,1015.56
2017-12-03T10:13:03.682Z,1015.59
2017-12-03T10:14:03.672Z,1015.63
2017-12-03T10:15:03.661Z,1015.60
2017-12-03T10:16:03.642Z,1015.59
2017-12-03T10:17:03.630Z,1015.61
2017-12-03T10:18:03.617Z,1015.59
2017-12-03T10:19:03.602Z,1015.59
2017-12-03T10:20:03.648Z,1015.58
2017-12-03T10:21:03.580Z,1015.59
2017-12-03T10:22:03.561Z,1015.58
2017-12-03T10:23:03.550Z,1015.62
2017-12-03T10:24:03.533Z,1015.63
2017-12-03T10:25:03.518Z,1015.64
2017-12-03T10:26:03.507Z,1015.59
2017-12-03T10:27:03.495Z,1015.64
2017-12-03T10:28:03.480Z,1015.56
2017-12-03T10:29:03.467Z,1015.61
2017-12-03T10:30:03.453Z,1015.50
2017-12-03T10:31:03.440Z,1015.49
2017-12-03T10:32:03.425Z,1015.49
2017-12-03T10:33:03.413Z,1015.49
2017-12-03T10:34:03.399Z,1015.48
2017-12-03T10:35:03.385Z,1015.48
2017-12-03T10:36:03.373Z,1015.47
2017-12-03T10:37:03.355Z,1015.49
2017-12-03T10:38:03.345Z,1015.43
2017-12-03T10:39:03.330Z,1015.43
2017-12-03T10:40:03.317Z,1015.40
2017-12-03T10:41:03.302Z,1015.34
2017-12-03T10:42:03.288Z,1015.43
2017-12-03T10:43:03.277Z,1015.37
2017-12-03T10:44:03.261Z,1015.38
2017-12-03T10:45:03.249Z,1015.40
2017-12-03T10:46:03.233Z,1015.37
2017-12-03T10:47:03.222Z,1015.38
2017-12-03T10:48:03.212Z,1015.40
2017-12-03T10:49:03.195Z,1015.38
2017-12-03T10:50:03.185Z,1015.36
2017-12-03T10:51:03.170Z,1015.34
2017-12-03T10:52:03.218Z,1015.30
2017-12-03T10:53:03.142Z,1015.28
2017-12-03T10:54:03.126Z,1015.32
2017-12-03T10:55:03.114Z,1015.33
2017-12-03T10:56:03.104Z,1015.24
2017-12-03T10:57:03.096Z,1015.30
2017-12-03T10:58:03.072Z,1015.28
2017-12-03T10:59:03.060Z,1015.31
2017-12-03T11:00:03.043Z,1015.20
2017-12-03T11:01:03.058Z,1015.19
2017-12-03T11:02:03.020Z,1015.25
2017-12-03T11:03:03.006Z,1015.16
2017-12-03T11:04:02.993Z,1015.09
2017-12-03T11:05:02.976Z,1015.25
2017-12-03T11:06:02.962Z,1015.24
2017-12-03T11:07:02.962Z,1015.23
2017-12-03T11:08:02.935Z,1015.18
2017-12-03T11:09:02.925Z,1015.12
2017-12-03T11:10:02.908Z,1015.04
2017-12-03T11:11:02.900Z,1015.03
2017-12-03T11:12:02.887Z,1015.07
2017-12-03T11:13:02.866Z,1015.01
2017-12-03T11:14:02.853Z,1015.01
2017-12-03T11:15:02.851Z,1014.99
2017-12-03T11:16:02.826Z,1015.00
2017-12-03T11:17:02.813Z,1014.97
2017-12-03T11:18:02.800Z,1014.96
2017-12-03T11:19:02.787Z,1014.88
2017-12-03T11:20:02.773Z,1014.97
2017-12-03T11:21:02.758Z,1014.95
2017-12-03T11:22:02.743Z,1014.95
2017-12-03T11:23:02.781Z,1014.94
2017-12-03T11:24:02.718Z,1014.96
2017-12-03T11:25:02.702Z,1015.02
2017-12-03T11:26:02.693Z,1014.95
2017-12-03T11:27:02.677Z,1014.87
2017-12-03T11:28:02.695Z,1014.91
2017-12-03T11:29:02.652Z,1014.89
2017-12-03T11:30:02.637Z,1014.88
2017-12-03T11:31:02.622Z,1014.83
2017-12-03T11:32:02.611Z,1014.85
2017-12-03T11:33:02.605Z,1014.81
2017-12-03T11:34:02.587Z,1014.77
2017-12-03T11:35:02.572Z,1014.85
2017-12-03T11:36:02.557Z,1014.84
2017-12-03T11:37:02.550Z,1014.86
2017-12-03T11:38:02.530Z,1014.88
2017-12-03T11:39:02.519Z,1014.73
2017-12-03T11:40:02.502Z,1014.86
2017-12-03T11:41:02.487Z,1014.87
2017-12-03T11:42:02.473Z,1014.89
2017-12-03T11:43:02.464Z,1014.84
2017-12-03T11:44:04.223Z,1014.87
2017-12-03T11:45:02.432Z,1014.86
2017-12-03T11:46:02.418Z,1014.84
2017-12-03T11:47:02.406Z,1014.81
2017-12-03T11:48:02.394Z,1014.85
2017-12-03T11:49:02.377Z,1014.83
2017-12-03T11:50:02.369Z,1014.85
2017-12-03T11:51:02.351Z,1014.82
2017-12-03T11:52:02.341Z,1014.81
2017-12-03T11:53:02.341Z,1014.80
2017-12-03T11:54:02.324Z,1014.82
2017-12-03T11:55:02.296Z,1014.80
2017-12-03T11:56:02.284Z,1014.73
2017-12-03T11:57:02.268Z,1014.77
2017-12-03T11:58:02.255Z,1014.74
2017-12-03T11:59:02.241Z,1014.72
2017-12-03T12:00:02.262Z,1014.71
2017-12-03T12:01:02.213Z,1014.64
2017-12-03T12:02:02.201Z,1014.68
2017-12-03T12:03:02.187Z,1014.65
2017-12-03T12:04:02.172Z,1014.66
2017-12-03T12:05:02.159Z,1014.64